createdAt,value
2023-01-09T00:01:25.224Z,99.5
2023-01-09T00:06:33.404Z,99.5
2023-01-09T00:11:41.581Z,99.5
2023-01-09T00:16:49.748Z,99.5
2023-01-09T00:21:57.917Z,99.5
2023-01-09T00:27:06.079Z,99.5
2023-01-09T00:32:14.273Z,99.5
2023-01-09T00:37:22.439Z,99.5
2023-01-09T00:42:30.652Z,99.5
2023-01-09T00:47:38.778Z,99.5
2023-01-09T00:52:46.951Z,99.5
2023-01-09T00:57:55.145Z,99.5
2023-01-09T01:03:03.333Z,99.5
2023-01-09T01:08:11.481Z,99.5
2023-01-09T01:13:19.652Z,99.5
2023-01-09T01:18:27.829Z,99.5
2023-01-09T01:23:36.006Z,99.5
2023-01-09T01:28:44.170Z,99.5
2023-01-09T01:33:52.338Z,99.5
2023-01-09T01:39:00.547Z,99.5
2023-01-09T01:44:08.695Z,99.5
2023-01-09T01:49:16.875Z,99.5
2023-01-09T01:54:25.041Z,99.5
2023-01-09T01:59:33.280Z,99.5
2023-01-09T02:04:41.380Z,99.5
2023-01-09T02:09:49.556Z,99.5
2023-01-09T02:14:57.745Z,99.5
2023-01-09T02:20:05.929Z,99.5
2023-01-09T02:25:14.085Z,99.5
2023-01-09T02:30:22.265Z,99.5
2023-01-09T02:35:30.560Z,99.5
2023-01-09T02:40:38.685Z,99.5
2023-01-09T02:45:46.776Z,99.5
2023-01-09T02:50:54.966Z,99.5
2023-01-09T02:56:03.250Z,99.5
2023-01-09T03:01:11.312Z,99.5
2023-01-09T03:06:19.484Z,99.5
2023-01-09T03:11:27.649Z,99.5
2023-01-09T03:16:35.857Z,99.5
2023-01-09T03:21:43.996Z,99.5
2023-01-09T03:26:52.202Z,99.5
2023-01-09T03:32:00.371Z,99.5
2023-01-09T03:37:08.526Z,99.5
2023-01-09T03:42:16.712Z,99.5
2023-01-09T03:47:24.881Z,99.5
2023-01-09T03:52:33.044Z,99.5
2023-01-09T03:57:41.369Z,99.5
2023-01-09T04:02:49.380Z,99.5
2023-01-09T04:07:57.564Z,99.5
2023-01-09T04:13:05.743Z,99.5
2023-01-09T04:18:13.982Z,99.5
2023-01-09T04:23:22.081Z,99.5
2023-01-09T04:28:30.271Z,99.5
2023-01-09T04:33:38.421Z,99.5
2023-01-09T04:38:46.605Z,99.5
2023-01-09T04:43:54.790Z,99.5
2023-01-09T04:49:02.963Z,99.5
2023-01-09T04:54:11.133Z,99.5
2023-01-09T04:59:19.321Z,99.5
2023-01-09T05:04:27.463Z,99.5
2023-01-09T05:09:35.652Z,99.5
2023-01-09T05:14:43.828Z,99.5
2023-01-09T05:19:52.012Z,99.5
2023-01-09T05:25:00.188Z,99.5
2023-01-09T05:30:08.367Z,99.5
2023-01-09T05:35:16.510Z,99.5
2023-01-09T05:40:24.690Z,99.5
2023-01-09T05:45:32.864Z,99.5
2023-01-09T05:50:41.037Z,99.5
2023-01-09T05:55:49.228Z,99.5
2023-01-09T06:00:57.383Z,99.5
2023-01-09T06:06:05.579Z,99.5
2023-01-09T06:11:13.744Z,99.5
2023-01-09T06:16:21.924Z,99.5
2023-01-09T06:21:30.077Z,99.5
2023-01-09T06:26:38.271Z,99.5
2023-01-09T06:31:46.438Z,99.5
2023-01-09T06:36:54.783Z,99.5
2023-01-09T06:42:03.031Z,99.5
2023-01-09T06:47:11.104Z,99.5
2023-01-09T06:52:19.291Z,99.5
2023-01-09T06:57:27.473Z,99.5
2023-01-09T07:02:35.706Z,99.5
2023-01-09T07:07:43.817Z,99.5
2023-01-09T07:12:51.981Z,99.5
2023-01-09T07:18:00.180Z,99.5
2023-01-09T07:23:08.345Z,99.5
2023-01-09T07:28:16.499Z,99.5
2023-01-09T07:33:24.701Z,99.5
2023-01-09T07:38:32.998Z,99.5
2023-01-09T07:43:41.088Z,99.5
2023-01-09T07:48:49.342Z,99.5
2023-01-09T07:53:57.384Z,99.5
2023-01-09T07:59:05.577Z,99.5
2023-01-09T08:04:13.735Z,99.5
2023-01-09T08:09:21.939Z,99.5
2023-01-09T08:14:30.099Z,99.5
2023-01-09T08:19:38.390Z,99.5
2023-01-09T08:24:46.440Z,99.5
2023-01-09T08:29:54.624Z,99.5
2023-01-09T08:35:02.883Z,99.5
2023-01-09T08:40:10.942Z,99.5
2023-01-09T08:45:19.189Z,99.5
2023-01-09T08:50:27.292Z,99.5
2023-01-09T08:55:35.464Z,99.5
2023-01-09T09:00:43.640Z,99.5
2023-01-09T09:05:51.880Z,99.5
2023-01-09T09:11:00.018Z,99.5
2023-01-09T09:16:08.173Z,99.5
2023-01-09T09:21:16.376Z,99.5
2023-01-09T09:26:24.511Z,99.5
2023-01-09T09:31:32.692Z,99.5
2023-01-09T09:36:40.861Z,99.5
2023-01-09T09:41:49.023Z,99.5
2023-01-09T09:46:57.225Z,98
2023-01-09T09:52:05.387Z,98
2023-01-09T09:57:13.540Z,96.5
2023-01-09T10:02:21.716Z,96.5
2023-01-09T10:07:29.902Z,96.5
2023-01-09T10:12:38.077Z,96
2023-01-09T10:17:46.262Z,94
2023-01-09T10:22:54.464Z,93.5
2023-01-09T10:28:02.809Z,94.5
2023-01-09T10:33:10.774Z,93.5
2023-01-09T10:38:18.958Z,90.5
2023-01-09T10:43:27.111Z,90
2023-01-09T10:48:35.316Z,93
2023-01-09T10:53:43.456Z,88
2023-01-09T10:58:51.737Z,86
2023-01-09T11:03:59.807Z,84
2023-01-09T11:09:07.991Z,80.5
2023-01-09T11:14:16.155Z,79.5
2023-01-09T11:19:24.316Z,79
2023-01-09T11:24:32.483Z,79.5
2023-01-09T11:29:40.717Z,76.5
2023-01-09T11:34:48.844Z,81
2023-01-09T11:39:57.003Z,83
2023-01-09T11:45:05.180Z,84
2023-01-09T11:50:13.369Z,78
2023-01-09T11:55:21.520Z,73.5
2023-01-09T12:00:29.690Z,73
2023-01-09T12:05:37.852Z,73.5
2023-01-09T12:10:46.024Z,75
2023-01-09T12:15:54.279Z,78.5
2023-01-09T12:21:02.359Z,82
2023-01-09T12:26:10.537Z,78.5
2023-01-09T12:31:18.699Z,81
2023-01-09T12:36:26.941Z,82
2023-01-09T12:41:35.148Z,81
2023-01-09T12:46:43.223Z,76
2023-01-09T12:51:51.412Z,70
2023-01-09T12:56:59.571Z,66
2023-01-09T13:02:07.742Z,73.5
2023-01-09T13:07:15.899Z,71
2023-01-09T13:12:24.101Z,75
2023-01-09T13:17:32.250Z,76
2023-01-09T13:22:40.421Z,77
2023-01-09T13:27:48.595Z,71.5
2023-01-09T13:32:56.751Z,64.5
2023-01-09T13:38:04.936Z,65
2023-01-09T13:43:13.104Z,65
2023-01-09T13:48:21.267Z,65.5
2023-01-09T13:53:29.427Z,67.5
2023-01-09T13:58:37.624Z,73.5
2023-01-09T14:03:45.780Z,76.5
2023-01-09T14:08:53.955Z,78
2023-01-09T14:14:02.184Z,78.5
2023-01-09T14:19:10.301Z,79
2023-01-09T14:24:18.456Z,80
2023-01-09T14:29:26.742Z,80.5
2023-01-09T14:34:34.800Z,80.5
2023-01-09T14:39:42.989Z,81
2023-01-09T14:44:51.160Z,81
2023-01-09T14:49:59.323Z,81.5
2023-01-09T14:55:07.501Z,82.5
2023-01-09T15:00:15.665Z,83
2023-01-09T15:05:23.847Z,83.5
2023-01-09T15:10:32.015Z,84
2023-01-09T15:15:40.199Z,84.5
2023-01-09T15:20:48.367Z,85
2023-01-09T15:25:56.760Z,85
2023-01-09T15:31:04.768Z,85.5
2023-01-09T15:36:12.889Z,85.5
2023-01-09T15:41:21.064Z,86
2023-01-09T15:46:29.245Z,85.5
2023-01-09T15:51:37.432Z,85.5
2023-01-09T15:56:45.581Z,85.5
2023-01-09T16:01:53.756Z,86
2023-01-09T16:07:01.913Z,86
2023-01-09T16:12:10.119Z,85.5
2023-01-09T16:17:18.277Z,85.5
2023-01-09T16:22:26.450Z,85.5
2023-01-09T16:27:34.617Z,85.5
2023-01-09T16:32:42.797Z,85.5
2023-01-09T16:37:50.952Z,85
2023-01-09T16:42:59.140Z,84.5
2023-01-09T16:48:07.332Z,84.5
2023-01-09T16:53:15.489Z,85
2023-01-09T16:58:23.655Z,85
2023-01-09T17:03:31.823Z,85.5
2023-01-09T17:08:40.006Z,85.5
2023-01-09T17:13:48.183Z,85.5
2023-01-09T17:18:56.364Z,85.5
2023-01-09T17:24:04.519Z,86
2023-01-09T17:29:12.711Z,87
2023-01-09T17:34:20.877Z,88
2023-01-09T17:39:29.045Z,88.5
2023-01-09T17:44:37.212Z,88.5
2023-01-09T17:49:45.398Z,88.5
2023-01-09T17:54:53.555Z,89
2023-01-09T18:00:01.758Z,89
2023-01-09T18:05:09.926Z,89.5
2023-01-09T18:10:18.097Z,90
2023-01-09T18:15:26.267Z,91.5
2023-01-09T18:20:34.462Z,92.5
2023-01-09T18:25:42.632Z,93
2023-01-09T18:30:50.803Z,93
2023-01-09T18:35:58.969Z,94
2023-01-09T18:41:07.139Z,94
2023-01-09T18:46:15.322Z,94.5
2023-01-09T18:51:23.497Z,94.5
2023-01-09T18:56:31.660Z,94.5
2023-01-09T19:01:39.835Z,94.5
2023-01-09T19:06:48.014Z,95
2023-01-09T19:11:56.194Z,95
2023-01-09T19:17:04.355Z,95.5
2023-01-09T19:22:12.524Z,95.5
2023-01-09T19:27:20.710Z,96
2023-01-09T19:32:28.876Z,96
2023-01-09T19:37:37.058Z,95.5
2023-01-09T19:42:45.223Z,95.5
2023-01-09T19:47:53.395Z,95.5
2023-01-09T19:53:01.589Z,96
2023-01-09T19:58:09.745Z,96.5
2023-01-09T20:03:17.921Z,96.5
2023-01-09T20:08:26.089Z,96.5
2023-01-09T20:13:34.262Z,96.5
2023-01-09T20:18:42.458Z,97
2023-01-09T20:23:50.635Z,97
2023-01-09T20:28:58.792Z,97.5
2023-01-09T20:34:06.993Z,97.5
2023-01-09T20:39:15.129Z,97.5
2023-01-09T20:44:23.402Z,97
2023-01-09T20:49:31.478Z,97.5
2023-01-09T20:54:39.647Z,97.5
2023-01-09T20:59:47.856Z,97
2023-01-09T21:04:55.996Z,96.5
2023-01-09T21:10:04.185Z,95.5
2023-01-09T21:15:12.384Z,95
2023-01-09T21:20:20.526Z,94.5
2023-01-09T21:25:28.762Z,94
2023-01-09T21:30:36.885Z,93
2023-01-09T21:35:45.064Z,92.5
2023-01-09T21:40:53.344Z,92.5
2023-01-09T21:46:01.399Z,93
2023-01-09T21:51:09.574Z,93
2023-01-09T21:56:17.743Z,92.5
2023-01-09T22:01:25.917Z,92.5
2023-01-09T22:06:34.151Z,93
2023-01-09T22:11:42.254Z,92.5
2023-01-09T22:16:50.479Z,92.5
2023-01-09T22:21:58.597Z,93
2023-01-09T22:27:06.835Z,93
2023-01-09T22:32:14.987Z,93
2023-01-09T22:37:23.117Z,93.5
2023-01-09T22:42:31.398Z,93.5
2023-01-09T22:47:39.524Z,93.5
2023-01-09T22:52:47.749Z,94
2023-01-09T22:57:55.979Z,94.5
2023-01-09T23:03:04.109Z,95
2023-01-09T23:08:12.192Z,95
2023-01-09T23:13:20.367Z,95
2023-01-09T23:18:28.536Z,95.5
2023-01-09T23:23:36.770Z,95.5
2023-01-09T23:28:44.881Z,96
2023-01-09T23:33:53.050Z,96
2023-01-09T23:39:01.228Z,96
2023-01-09T23:44:09.392Z,96
2023-01-09T23:49:17.791Z,96
2023-01-09T23:54:25.913Z,96
2023-01-09T23:59:34.078Z,96.5
